createdAt,value
2018-08-20T00:04:04.523Z,7.90
2018-08-20T00:09:13.824Z,8.10
2018-08-20T00:14:17.928Z,7.57
2018-08-20T00:19:15.008Z,7.43
2018-08-20T00:24:09.578Z,8.00
2018-08-20T00:29:06.464Z,7.97
2018-08-20T00:34:01.680Z,7.87
2018-08-20T00:38:56.178Z,7.27
2018-08-20T00:43:51.692Z,7.83
2018-08-20T00:49:03.013Z,8.13
2018-08-20T00:53:57.622Z,7.70
2018-08-20T00:58:52.511Z,7.87
2018-08-20T01:03:47.208Z,7.87
2018-08-20T01:08:42.240Z,7.37
2018-08-20T01:13:37.105Z,7.73
2018-08-20T01:18:31.722Z,7.60
2018-08-20T01:23:29.522Z,7.23
2018-08-20T01:28:24.312Z,7.33
2018-08-20T01:33:18.809Z,7.13
2018-08-20T01:38:13.786Z,7.63
2018-08-20T01:43:09.893Z,7.70
2018-08-20T01:48:04.947Z,8.17
2018-08-20T01:53:00.471Z,7.77
2018-08-20T01:57:55.915Z,7.93
2018-08-20T02:02:53.509Z,8.20
2018-08-20T02:08:11.300Z,8.47
2018-08-20T02:13:06.122Z,8.57
2018-08-20T02:18:00.622Z,8.90
2018-08-20T02:22:56.270Z,8.90
2018-08-20T02:27:51.378Z,8.80
2018-08-20T02:32:47.301Z,8.73
2018-08-20T02:37:48.373Z,8.87
2018-08-20T02:42:43.669Z,9.13
2018-08-20T02:47:40.109Z,9.00
2018-08-20T02:52:35.753Z,9.10
2018-08-20T02:57:32.667Z,8.50
2018-08-20T03:02:27.545Z,9.00
2018-08-20T03:07:22.894Z,9.07
2018-08-20T03:12:17.423Z,9.57
2018-08-20T03:17:11.890Z,9.43
2018-08-20T03:22:06.974Z,9.80
2018-08-20T03:27:01.636Z,9.90
2018-08-20T03:31:56.114Z,9.43
2018-08-20T03:36:51.155Z,10.20
2018-08-20T03:41:45.830Z,9.63
2018-08-20T03:46:40.381Z,10.33
2018-08-20T03:51:34.883Z,10.20
2018-08-20T03:56:29.880Z,8.33
2018-08-20T04:01:25.922Z,6.17
2018-08-20T04:06:20.667Z,4.83
2018-08-20T04:11:27.409Z,4.27
2018-08-20T04:16:28.467Z,4.30
2018-08-20T04:21:23.180Z,4.47
2018-08-20T04:26:17.672Z,4.80
2018-08-20T04:31:12.502Z,4.60
2018-08-20T04:36:07.208Z,4.97
2018-08-20T04:41:01.680Z,4.53
2018-08-20T04:45:56.356Z,4.30
2018-08-20T04:50:51.177Z,4.20
2018-08-20T04:55:45.684Z,4.03
2018-08-20T05:00:40.782Z,3.60
2018-08-20T05:05:35.267Z,3.90
2018-08-20T05:10:29.759Z,4.23
2018-08-20T05:15:34.848Z,3.97
2018-08-20T05:20:29.306Z,4.23
2018-08-20T05:25:23.789Z,4.00
2018-08-20T05:30:18.303Z,3.77
2018-08-20T05:35:13.083Z,4.80
2018-08-20T05:40:07.769Z,3.50
2018-08-20T05:45:02.587Z,3.40
2018-08-20T05:49:57.104Z,3.57
2018-08-20T05:54:51.936Z,3.70
2018-08-20T05:59:46.425Z,3.37
2018-08-20T06:04:41.022Z,3.30
2018-08-20T06:09:35.675Z,3.87
2018-08-20T06:14:30.386Z,3.33
2018-08-20T06:19:24.868Z,3.80
2018-08-20T06:24:20.172Z,4.03
2018-08-20T06:29:14.789Z,4.73
2018-08-20T06:34:09.816Z,4.00
2018-08-20T06:39:06.024Z,3.77
2018-08-20T06:44:00.571Z,3.87
2018-08-20T06:48:55.591Z,3.53
2018-08-20T06:53:50.082Z,3.57
2018-08-20T06:58:44.814Z,3.40
2018-08-20T07:03:39.513Z,3.53
2018-08-20T07:08:34.061Z,4.00
2018-08-20T07:13:34.985Z,3.60
2018-08-20T07:18:29.756Z,4.10
2018-08-20T07:23:24.475Z,3.90
2018-08-20T07:28:19.244Z,3.67
2018-08-20T07:33:13.946Z,3.90
2018-08-20T07:38:08.810Z,3.53
2018-08-20T07:43:03.286Z,4.37
2018-08-20T07:47:57.800Z,4.43
2018-08-20T07:52:52.481Z,4.10
2018-08-20T07:57:47.178Z,4.37
2018-08-20T08:02:41.644Z,4.80
2018-08-20T08:07:36.168Z,5.00
2018-08-20T08:12:30.652Z,4.90
2018-08-20T08:17:25.163Z,5.27
2018-08-20T08:22:19.677Z,5.30
2018-08-20T08:27:14.233Z,5.30
2018-08-20T08:32:08.985Z,5.23
2018-08-20T08:37:03.620Z,6.03
2018-08-20T08:41:58.074Z,6.17
2018-08-20T08:46:52.938Z,6.10
2018-08-20T08:51:47.444Z,5.43
2018-08-20T08:56:42.249Z,5.93
2018-08-20T09:01:36.751Z,5.40
2018-08-20T09:06:31.289Z,6.20
2018-08-20T09:11:26.775Z,6.20
2018-08-20T09:16:21.983Z,6.80
2018-08-20T09:21:16.820Z,7.80
2018-08-20T09:26:12.865Z,8.20
2018-08-20T09:31:07.938Z,8.93
2018-08-20T09:36:02.661Z,8.93
2018-08-20T09:40:57.598Z,8.37
2018-08-20T09:45:52.673Z,8.07
2018-08-20T09:50:47.471Z,6.33
2018-08-20T09:55:42.494Z,5.80
2018-08-20T10:00:40.010Z,5.67
2018-08-20T10:05:36.106Z,6.23
2018-08-20T10:10:31.447Z,5.50
2018-08-20T10:15:25.915Z,4.87
2018-08-20T10:20:20.561Z,5.13
2018-08-20T10:25:16.808Z,4.93
2018-08-20T10:30:13.048Z,5.67
2018-08-20T10:35:08.195Z,5.10
2018-08-20T10:40:03.165Z,5.30
2018-08-20T10:45:03.168Z,4.87
2018-08-20T10:49:58.127Z,5.03
2018-08-20T10:54:53.963Z,5.40
2018-08-20T10:59:50.710Z,5.63
2018-08-20T11:04:46.268Z,6.40
2018-08-20T11:09:41.776Z,7.07
2018-08-20T11:14:36.973Z,8.20
2018-08-20T11:19:31.862Z,8.60
2018-08-20T11:24:26.764Z,9.20
2018-08-20T11:29:21.323Z,10.50
2018-08-20T11:34:16.168Z,9.03
2018-08-20T11:39:10.717Z,7.23
2018-08-20T11:44:05.415Z,7.10
2018-08-20T11:49:00.118Z,6.83
2018-08-20T11:53:54.845Z,6.60
2018-08-20T11:58:49.473Z,6.37
2018-08-20T12:03:44.551Z,6.30
2018-08-20T12:08:39.089Z,6.47
2018-08-20T12:13:34.204Z,6.07
2018-08-20T12:18:29.373Z,5.80
2018-08-20T12:23:24.376Z,4.97
2018-08-20T12:28:19.942Z,4.90
2018-08-20T12:33:16.286Z,4.13
2018-08-20T12:38:11.426Z,4.50
2018-08-20T12:43:06.799Z,5.03
2018-08-20T12:48:01.687Z,3.97
2018-08-20T12:52:58.289Z,3.50
2018-08-20T12:57:53.884Z,4.10
2018-08-20T13:02:49.147Z,3.73
2018-08-20T13:07:44.744Z,4.37
2018-08-20T13:12:39.616Z,4.07
2018-08-20T13:17:34.750Z,4.13
2018-08-20T13:22:30.047Z,3.90
2018-08-20T13:27:24.881Z,3.87
2018-08-20T13:32:20.206Z,3.80
2018-08-20T13:37:15.356Z,3.80
2018-08-20T13:42:10.678Z,4.67
2018-08-20T13:47:06.189Z,4.40
2018-08-20T13:52:01.294Z,3.60
2018-08-20T13:56:56.190Z,4.03
2018-08-20T14:01:51.021Z,4.23
2018-08-20T14:06:46.237Z,4.70
2018-08-20T14:11:41.384Z,4.83
2018-08-20T14:16:36.377Z,4.77
2018-08-20T14:21:31.677Z,4.53
2018-08-20T14:26:26.474Z,4.37
2018-08-20T14:31:21.213Z,3.40
2018-08-20T14:36:16.148Z,3.83
2018-08-20T14:41:10.904Z,3.47
2018-08-20T14:46:11.399Z,4.27
2018-08-20T14:51:06.309Z,4.57
2018-08-20T14:56:01.585Z,5.07
2018-08-20T15:00:58.404Z,5.60
2018-08-20T15:05:53.444Z,5.63
2018-08-20T15:10:48.198Z,5.60
2018-08-20T15:15:46.882Z,5.33
2018-08-20T15:20:41.744Z,5.70
2018-08-20T15:25:36.513Z,6.00
2018-08-20T15:30:31.538Z,5.67
2018-08-20T15:35:27.508Z,5.67
2018-08-20T15:40:22.643Z,5.50
2018-08-20T15:45:17.382Z,6.57
2018-08-20T15:50:12.687Z,8.10
2018-08-20T15:55:08.114Z,10.73
2018-08-20T16:00:02.933Z,10.70
2018-08-20T16:04:57.901Z,9.83
2018-08-20T16:09:52.706Z,9.50
2018-08-20T16:14:47.952Z,8.77
2018-08-20T16:19:42.426Z,9.70
2018-08-20T16:24:37.490Z,10.00
2018-08-20T16:29:32.593Z,9.90
2018-08-20T16:34:27.356Z,9.30
2018-08-20T16:39:22.720Z,10.07
2018-08-20T16:44:17.300Z,9.97
2018-08-20T16:49:13.277Z,10.00
2018-08-20T16:54:08.450Z,9.40
2018-08-20T16:59:03.534Z,8.97
2018-08-20T17:03:58.802Z,9.67
2018-08-20T17:08:54.285Z,9.80
2018-08-20T17:13:49.514Z,9.83
2018-08-20T17:18:44.302Z,14.30
2018-08-20T17:23:39.849Z,7.80
2018-08-20T17:28:34.730Z,8.27
2018-08-20T17:33:34.237Z,7.37
2018-08-20T17:38:28.804Z,8.00
2018-08-20T17:43:23.291Z,7.37
2018-08-20T17:48:24.572Z,7.37
2018-08-20T17:53:19.021Z,7.20
2018-08-20T17:58:14.159Z,6.80
2018-08-20T18:03:16.395Z,6.67
2018-08-20T18:08:11.308Z,5.53
2018-08-20T18:13:06.434Z,5.70
2018-08-20T18:18:00.898Z,5.63
2018-08-20T18:22:55.755Z,5.80
2018-08-20T18:27:51.092Z,5.20
2018-08-20T18:32:46.422Z,4.60
2018-08-20T18:37:47.051Z,4.90
2018-08-20T18:42:46.723Z,4.43
2018-08-20T18:47:41.169Z,4.83
2018-08-20T18:52:36.598Z,4.57
2018-08-20T18:57:34.091Z,5.03
2018-08-20T19:03:03.576Z,4.73
2018-08-20T19:07:58.239Z,4.97
2018-08-20T19:12:53.330Z,4.73
2018-08-20T19:17:48.082Z,4.60
2018-08-20T19:22:42.614Z,4.50
2018-08-20T19:27:37.316Z,4.77
2018-08-20T19:32:31.832Z,4.83
2018-08-20T19:37:26.442Z,4.47
2018-08-20T19:42:27.099Z,4.87
2018-08-20T19:47:21.630Z,4.50
2018-08-20T19:52:16.186Z,4.60
2018-08-20T19:57:10.905Z,4.47
2018-08-20T20:02:06.741Z,4.30
2018-08-20T20:07:01.235Z,4.70
2018-08-20T20:11:55.992Z,4.37
2018-08-20T20:16:55.555Z,4.23
2018-08-20T20:21:50.439Z,4.83
2018-08-20T20:26:44.954Z,4.73
2018-08-20T20:31:41.156Z,4.30
2018-08-20T20:36:36.527Z,3.70
2018-08-20T20:41:31.069Z,3.93
2018-08-20T20:46:26.559Z,3.83
2018-08-20T20:51:21.032Z,4.07
2018-08-20T20:56:15.640Z,3.60
2018-08-20T21:01:11.857Z,3.90
2018-08-20T21:06:07.269Z,3.90
2018-08-20T21:11:01.840Z,3.73
2018-08-20T21:16:03.479Z,3.87
2018-08-20T21:20:57.968Z,3.73
2018-08-20T21:25:52.910Z,4.00
2018-08-20T21:30:47.467Z,3.80
2018-08-20T21:35:42.430Z,4.60
2018-08-20T21:40:36.908Z,4.00
2018-08-20T21:45:31.368Z,4.87
2018-08-20T21:50:25.846Z,4.10
2018-08-20T21:55:22.449Z,4.47
2018-08-20T22:00:19.472Z,6.00
2018-08-20T22:05:14.727Z,5.30
2018-08-20T22:10:09.357Z,3.90
2018-08-20T22:15:04.403Z,4.00
2018-08-20T22:19:59.280Z,5.50
2018-08-20T22:24:57.065Z,5.53
2018-08-20T22:29:52.370Z,4.43
2018-08-20T22:34:47.068Z,4.30
2018-08-20T22:39:41.814Z,4.47
2018-08-20T22:44:36.430Z,4.63
2018-08-20T22:49:31.520Z,4.80
2018-08-20T22:54:25.956Z,4.40
2018-08-20T22:59:20.859Z,4.60
2018-08-20T23:04:15.555Z,6.07
2018-08-20T23:09:27.980Z,4.20
2018-08-20T23:14:22.448Z,4.50
2018-08-20T23:19:17.016Z,4.80
2018-08-20T23:24:12.663Z,4.77
2018-08-20T23:29:07.432Z,4.37
2018-08-20T23:34:16.788Z,4.47
2018-08-20T23:39:20.463Z,4.60
2018-08-20T23:44:28.042Z,4.60
2018-08-20T23:49:22.569Z,4.77
2018-08-20T23:54:17.186Z,4.03
2018-08-20T23:59:11.764Z,3.90
